Time;durP1;ratioP1;P1;durP2;ratioP2;P2;SDS_P1;SDS_P2;PMS_P1;PMS_P2;Temp;Humidity;BMP_temperature;BMP_pressure;BME280_temperature;BME280_humidity;BME280_pressure;Samples;Min_cycle;Max_cycle;Signal;HPM_P1;HPM_P2
2021/10/09 00:02:15;;;;;;;28.90;15.55;;;12.10;99.90;;;;;;5035002;28;20044;-68
2021/10/09 00:04:41;;;;;;;26.55;14.50;;;12.00;99.90;;;;;;5049985;28;20061;-68
2021/10/09 00:07:07;;;;;;;31.52;16.50;;;12.10;99.90;;;;;;5034657;28;20061;-68
2021/10/09 00:09:33;;;;;;;30.77;16.38;;;12.20;99.90;;;;;;5034770;28;20134;-68
2021/10/09 00:11:59;;;;;;;26.67;15.27;;;12.10;99.90;;;;;;5049893;28;20033;-68
2021/10/09 00:14:24;;;;;;;33.80;15.60;;;12.00;99.90;;;;;;5049784;28;20087;-68
2021/10/09 00:16:50;;;;;;;30.10;15.30;;;11.90;99.90;;;;;;5034641;28;20394;-69
2021/10/09 00:19:16;;;;;;;31.38;16.33;;;11.80;99.90;;;;;;5034273;28;20030;-68
2021/10/09 00:21:44;;;;;;;28.50;16.00;;;11.70;99.90;;;;;;5034428;28;20036;-69
2021/10/09 00:24:16;;;;;;;27.58;15.45;;;11.70;99.90;;;;;;5034479;28;20083;-69
2021/10/09 00:26:42;;;;;;;32.15;16.58;;;11.80;99.90;;;;;;5034223;28;20034;-68
2021/10/09 00:29:09;;;;;;;31.15;16.10;;;11.70;99.90;;;;;;5049506;28;20426;-69
2021/10/09 00:31:35;;;;;;;31.45;15.55;;;11.80;99.90;;;;;;5034127;28;20029;-68
2021/10/09 00:34:03;;;;;;;30.00;15.55;;;11.90;99.90;;;;;;5049778;28;20493;-68
2021/10/09 00:36:28;;;;;;;33.35;16.45;;;11.90;99.90;;;;;;5049814;28;20129;-69
2021/10/09 00:38:54;;;;;;;28.27;15.50;;;12.00;99.90;;;;;;5033837;28;20112;-68
2021/10/09 00:41:21;;;;;;;29.45;15.95;;;12.10;99.90;;;;;;5033995;28;20524;-69
2021/10/09 00:43:47;;;;;;;28.83;15.60;;;11.90;99.90;;;;;;5033954;28;20065;-69
2021/10/09 00:46:13;;;;;;;33.13;15.93;;;11.80;99.90;;;;;;5049474;28;20075;-69
2021/10/09 00:48:39;;;;;;;32.30;15.82;;;11.80;99.90;;;;;;5048872;28;20034;-70
2021/10/09 00:51:06;;;;;;;29.80;14.88;;;11.60;99.90;;;;;;5049548;28;20071;-69
2021/10/09 00:53:38;;;;;;;38.78;17.02;;;11.60;99.90;;;;;;5048798;28;20116;-68
2021/10/09 00:56:07;;;;;;;29.45;16.35;;;11.70;99.90;;;;;;5049108;28;20037;-69
2021/10/09 00:58:36;;;;;;;33.28;17.80;;;11.70;99.90;;;;;;5049133;28;20037;-68
2021/10/09 01:01:02;;;;;;;32.30;16.13;;;11.80;99.90;;;;;;5049121;28;20025;-69
2021/10/09 01:03:30;;;;;;;31.05;14.80;;;11.80;99.90;;;;;;5033317;28;20033;-69
2021/10/09 01:05:56;;;;;;;28.60;16.23;;;11.70;99.90;;;;;;5033585;28;20029;-69
2021/10/09 01:08:21;;;;;;;30.33;15.52;;;11.80;99.90;;;;;;5033404;28;20136;-68
2021/10/09 01:10:47;;;;;;;30.38;15.48;;;11.90;99.90;;;;;;5033660;28;20056;-68
2021/10/09 01:13:13;;;;;;;28.58;15.10;;;11.90;99.90;;;;;;5033682;28;20486;-68
2021/10/09 01:15:39;;;;;;;28.58;15.77;;;11.80;99.90;;;;;;5033410;28;20431;-69
2021/10/09 01:18:17;;;;;;;33.03;16.20;;;11.80;99.90;;;;;;5048565;28;20041;-69
2021/10/09 01:21:01;;;;;;;25.95;14.75;;;11.80;99.90;;;;;;5033265;28;20113;-69
2021/10/09 01:23:28;;;;;;;30.25;16.27;;;11.80;99.90;;;;;;5031825;28;20060;-68
2021/10/09 01:25:54;;;;;;;29.52;15.15;;;11.70;99.90;;;;;;5033745;28;20052;-68
2021/10/09 01:28:20;;;;;;;29.25;16.38;;;11.80;99.90;;;;;;5032925;28;20025;-68
2021/10/09 01:30:47;;;;;;;27.85;16.15;;;11.80;99.90;;;;;;5033392;28;20164;-68
2021/10/09 01:33:14;;;;;;;29.15;15.02;;;11.50;99.90;;;;;;5048790;28;20025;-68
2021/10/09 01:35:53;;;;;;;29.40;15.35;;;11.50;99.90;;;;;;5032814;28;20029;-68
2021/10/09 01:38:21;;;;;;;32.67;15.73;;;11.50;99.90;;;;;;5031541;28;20083;-68
2021/10/09 01:40:47;;;;;;;35.70;15.35;;;11.40;99.90;;;;;;5033143;28;20037;-69
2021/10/09 01:43:15;;;;;;;27.70;15.85;;;11.30;99.90;;;;;;5048078;28;20132;-68
2021/10/09 01:45:42;;;;;;;33.45;16.38;;;11.20;99.90;;;;;;5032758;28;20068;-68
2021/10/09 01:48:08;;;;;;;26.95;15.88;;;11.10;99.90;;;;;;5048382;28;20034;-68
2021/10/09 01:50:35;;;;;;;34.08;16.95;;;11.10;99.90;;;;;;5032535;28;20489;-68
2021/10/09 01:53:05;;;;;;;30.40;15.93;;;10.90;99.90;;;;;;5032310;28;20041;-69
2021/10/09 01:55:31;;;;;;;30.30;15.35;;;10.80;99.90;;;;;;5032502;28;20033;-68
2021/10/09 01:57:57;;;;;;;32.72;16.30;;;10.80;99.90;;;;;;5048245;28;20079;-69
2021/10/09 02:00:24;;;;;;;27.70;15.32;;;10.80;99.90;;;;;;5032243;28;20505;-68
2021/10/09 02:02:50;;;;;;;29.77;16.35;;;10.70;99.90;;;;;;5032881;28;20061;-68
2021/10/09 02:05:16;;;;;;;28.35;15.52;;;10.60;99.90;;;;;;5048021;28;20059;-69
2021/10/09 02:07:42;;;;;;;32.67;16.00;;;10.40;99.90;;;;;;5047720;28;20368;-68
2021/10/09 02:10:09;;;;;;;36.50;17.23;;;10.20;99.90;;;;;;5047808;28;20030;-69
2021/10/09 02:12:34;;;;;;;34.28;16.02;;;10.10;99.90;;;;;;5032366;28;20064;-68
2021/10/09 02:15:07;;;;;;;35.42;17.02;;;10.10;99.90;;;;;;5032615;28;20510;-68
2021/10/09 02:25:47;;;;;;;31.98;16.98;;;9.90;99.90;;;;;;5032018;28;20467;-69
2021/10/09 02:28:18;;;;;;;38.30;16.20;;;10.10;99.90;;;;;;5047092;28;20033;-69
2021/10/09 02:30:44;;;;;;;29.77;15.85;;;10.20;99.90;;;;;;5047333;28;20029;-69
2021/10/09 02:33:10;;;;;;;30.90;16.90;;;10.40;99.90;;;;;;5047450;28;20521;-68
2021/10/09 02:35:36;;;;;;;33.45;16.17;;;10.40;99.90;;;;;;5032283;28;20025;-68
2021/10/09 02:38:03;;;;;;;34.53;16.75;;;10.40;99.90;;;;;;5047410;28;20475;-68
2021/10/09 02:40:30;;;;;;;32.25;16.33;;;10.40;99.90;;;;;;5032180;28;20026;-68
2021/10/09 02:42:56;;;;;;;29.60;16.38;;;10.40;99.90;;;;;;5047393;28;20551;-68
2021/10/09 02:45:22;;;;;;;31.23;16.00;;;10.30;99.90;;;;;;5047271;28;20128;-68
2021/10/09 02:47:48;;;;;;;34.88;16.80;;;10.40;99.90;;;;;;5031930;28;20029;-68
2021/10/09 02:50:14;;;;;;;34.75;16.90;;;10.40;99.90;;;;;;5047578;28;20040;-69
2021/10/09 02:52:43;;;;;;;39.63;15.40;;;10.30;99.90;;;;;;5047019;28;20029;-69
2021/10/09 02:55:10;;;;;;;39.20;17.35;;;10.30;99.90;;;;;;5047524;28;20033;-69
2021/10/09 02:57:38;;;;;;;29.58;15.50;;;10.10;99.90;;;;;;5032046;28;20029;-69
2021/10/09 03:00:06;;;;;;;31.48;16.08;;;10.00;99.90;;;;;;5047652;28;20026;-69
2021/10/09 03:02:34;;;;;;;28.20;14.73;;;10.00;99.90;;;;;;5032656;28;20022;-69
2021/10/09 03:05:04;;;;;;;28.13;16.25;;;10.10;99.90;;;;;;5035714;28;20398;-69
2021/10/09 03:07:30;;;;;;;36.28;16.73;;;10.10;99.90;;;;;;5035898;28;20030;-69
2021/10/09 03:09:56;;;;;;;30.63;15.70;;;10.10;99.90;;;;;;5051507;28;20037;-69
2021/10/09 03:12:21;;;;;;;26.63;15.68;;;10.00;99.90;;;;;;5035603;28;20033;-68
2021/10/09 03:14:47;;;;;;;31.15;17.05;;;10.00;99.90;;;;;;5035800;28;20047;-68
2021/10/09 03:17:13;;;;;;;34.95;18.00;;;9.90;99.90;;;;;;5035337;28;20045;-69
2021/10/09 03:19:39;;;;;;;30.15;16.02;;;9.80;99.90;;;;;;5035764;28;20037;-68
2021/10/09 03:22:04;;;;;;;32.97;16.05;;;9.80;99.90;;;;;;5035476;28;20367;-68
2021/10/09 03:24:30;;;;;;;33.70;16.35;;;9.90;99.90;;;;;;5035598;28;20078;-68
2021/10/09 03:26:56;;;;;;;31.10;16.58;;;9.90;99.90;;;;;;5035296;28;20608;-68
2021/10/09 03:29:21;;;;;;;35.70;16.20;;;9.90;99.90;;;;;;5035724;28;20033;-68
2021/10/09 03:31:47;;;;;;;34.90;16.38;;;9.90;99.90;;;;;;5035429;28;20531;-68
2021/10/09 03:34:13;;;;;;;31.60;14.85;;;9.90;99.90;;;;;;5035801;28;20371;-69
2021/10/09 03:36:39;;;;;;;27.27;16.77;;;9.90;99.90;;;;;;5035458;28;20481;-69
2021/10/09 03:39:09;;;;;;;41.50;15.43;;;9.90;99.90;;;;;;5033982;28;20030;-69
2021/10/09 03:41:36;;;;;;;30.55;16.02;;;9.80;99.90;;;;;;5033850;28;20037;-68
2021/10/09 03:44:02;;;;;;;24.00;15.10;;;9.80;99.90;;;;;;5035311;28;20033;-68
2021/10/09 03:46:30;;;;;;;32.45;16.23;;;9.70;99.90;;;;;;5035157;28;20482;-68
2021/10/09 03:54:06;;;;;;;30.15;15.60;;;9.60;99.90;;;;;;5034847;28;20455;-69
2021/10/09 03:56:32;;;;;;;26.17;15.20;;;9.60;99.90;;;;;;5050057;28;20111;-68
2021/10/09 03:58:57;;;;;;;31.63;15.18;;;9.50;99.90;;;;;;5050230;28;20057;-69
2021/10/09 04:01:23;;;;;;;27.98;15.43;;;9.60;99.90;;;;;;5034985;28;20176;-68
2021/10/09 04:03:49;;;;;;;29.98;15.93;;;9.60;99.90;;;;;;5049949;28;20029;-68
2021/10/09 04:06:15;;;;;;;28.25;16.35;;;9.50;99.90;;;;;;5034686;28;20040;-69
2021/10/09 04:08:41;;;;;;;30.52;15.32;;;9.60;99.90;;;;;;5034516;28;20482;-69
2021/10/09 04:11:06;;;;;;;32.53;15.07;;;9.60;99.90;;;;;;5035021;28;20029;-68
2021/10/09 04:13:32;;;;;;;30.73;16.48;;;9.70;99.90;;;;;;5034525;28;20041;-69
2021/10/09 04:15:58;;;;;;;32.03;16.27;;;9.50;99.90;;;;;;5034216;28;20084;-68
2021/10/09 04:18:24;;;;;;;35.65;14.45;;;9.50;99.90;;;;;;5034374;28;20140;-69
2021/10/09 04:20:49;;;;;;;29.50;15.80;;;9.40;99.90;;;;;;5049655;28;20068;-68
2021/10/09 04:23:15;;;;;;;28.80;14.77;;;9.40;99.90;;;;;;5033351;28;20060;-69
2021/10/09 04:25:41;;;;;;;27.73;15.35;;;9.40;99.90;;;;;;5034311;28;20430;-68
2021/10/09 04:28:06;;;;;;;31.20;16.08;;;9.20;99.90;;;;;;5049899;28;20496;-69
2021/10/09 04:30:33;;;;;;;30.60;14.60;;;9.20;99.90;;;;;;5034113;28;20029;-69
2021/10/09 04:32:59;;;;;;;27.95;15.32;;;9.10;99.90;;;;;;5049557;28;20474;-68
2021/10/09 04:35:25;;;;;;;31.52;15.77;;;9.10;99.90;;;;;;5034438;28;20041;-68
2021/10/09 04:37:51;;;;;;;29.90;15.27;;;9.30;99.90;;;;;;5033994;28;20042;-68
2021/10/09 04:40:17;;;;;;;32.08;16.00;;;9.40;99.90;;;;;;5034361;28;20057;-68
2021/10/09 04:42:42;;;;;;;28.98;14.30;;;9.40;99.90;;;;;;5033970;28;20108;-68
2021/10/09 04:45:09;;;;;;;28.95;15.00;;;9.40;99.90;;;;;;5033047;28;20040;-69
2021/10/09 04:47:35;;;;;;;28.58;16.67;;;9.30;99.90;;;;;;5034040;28;20036;-69
2021/10/09 04:50:00;;;;;;;32.28;16.00;;;9.20;99.90;;;;;;5034186;28;20038;-68
2021/10/09 04:52:26;;;;;;;30.30;14.98;;;9.00;99.90;;;;;;5033954;28;20028;-68
2021/10/09 04:54:52;;;;;;;26.85;15.13;;;8.90;99.90;;;;;;5049335;28;20482;-68
2021/10/09 04:57:17;;;;;;;32.15;16.65;;;8.90;99.90;;;;;;5033986;28;20037;-69
2021/10/09 04:59:43;;;;;;;34.92;15.85;;;9.00;99.90;;;;;;5033573;28;20092;-68
2021/10/09 05:02:09;;;;;;;26.48;15.70;;;8.70;99.90;;;;;;5033704;28;20053;-68
2021/10/09 05:04:35;;;;;;;31.17;15.82;;;8.80;99.90;;;;;;5048744;28;20087;-68
2021/10/09 05:07:00;;;;;;;32.65;16.13;;;8.70;99.90;;;;;;5033465;28;20036;-68
2021/10/09 05:09:26;;;;;;;31.08;16.33;;;8.70;99.90;;;;;;5033574;28;20069;-68
2021/10/09 05:11:52;;;;;;;32.88;17.08;;;8.20;99.90;;;;;;5049074;28;20037;-68
2021/10/09 05:14:17;;;;;;;35.83;17.33;;;8.10;99.90;;;;;;5033742;28;20030;-68
2021/10/09 05:16:43;;;;;;;32.03;16.83;;;8.30;99.90;;;;;;5032060;28;20030;-68
2021/10/09 05:19:09;;;;;;;29.38;17.13;;;8.40;99.90;;;;;;5048513;28;20045;-68
2021/10/09 05:21:35;;;;;;;32.38;16.17;;;8.30;99.90;;;;;;5033522;28;20033;-68
2021/10/09 05:24:01;;;;;;;32.50;16.25;;;8.40;99.90;;;;;;5033285;28;20034;-69
2021/10/09 05:26:27;;;;;;;32.83;16.85;;;8.40;99.90;;;;;;5032135;28;20025;-69
2021/10/09 05:28:54;;;;;;;31.73;17.60;;;8.40;99.90;;;;;;5033048;28;20510;-69
2021/10/09 05:31:29;;;;;;;34.83;17.70;;;8.30;99.90;;;;;;5033152;28;20037;-69
2021/10/09 05:33:55;;;;;;;37.10;17.13;;;8.30;99.90;;;;;;5032965;28;20069;-68
2021/10/09 05:36:22;;;;;;;33.42;16.60;;;8.50;99.90;;;;;;5048447;28;20040;-68
2021/10/09 05:38:49;;;;;;;34.95;17.13;;;8.50;99.90;;;;;;5032974;28;20030;-68
2021/10/09 05:41:15;;;;;;;36.08;18.25;;;8.40;99.90;;;;;;5033134;28;20032;-69
2021/10/09 05:43:40;;;;;;;37.08;17.63;;;8.40;99.90;;;;;;5032602;28;20037;-69
2021/10/09 05:46:06;;;;;;;34.53;17.00;;;8.50;99.90;;;;;;5048101;28;20033;-69
2021/10/09 05:48:37;;;;;;;38.03;18.23;;;8.40;99.90;;;;;;5048214;28;20057;-69
2021/10/09 05:51:17;;;;;;;35.72;18.50;;;8.40;99.90;;;;;;5032734;28;20060;-69
2021/10/09 05:56:28;;;;;;;30.13;16.25;;;8.80;99.90;;;;;;5047224;28;20276;-70
2021/10/09 06:31:48;;;;;;;35.50;19.20;;;8.00;99.90;;;;;;5045042;28;20029;-70
2021/10/09 07:01:19;;;;;;;29.48;15.35;;;9.30;99.90;;;;;;5031871;28;20083;-70
2021/10/09 07:03:48;;;;;;;24.48;13.27;;;9.40;99.90;;;;;;5031902;28;20033;-71
2021/10/09 07:06:16;;;;;;;27.50;13.77;;;9.50;99.90;;;;;;5031932;28;20038;-69
2021/10/09 07:08:42;;;;;;;33.13;14.23;;;9.60;99.90;;;;;;5030490;28;20175;-68
2021/10/09 07:11:08;;;;;;;33.00;14.48;;;9.70;99.90;;;;;;5047160;28;20108;-72
2021/10/09 07:13:34;;;;;;;24.45;13.45;;;9.80;99.90;;;;;;5031611;28;20041;-71
2021/10/09 07:16:00;;;;;;;28.38;12.10;;;9.80;99.90;;;;;;5036685;28;20033;-72
2021/10/09 07:18:26;;;;;;;22.83;13.27;;;10.00;99.90;;;;;;5050223;28;20073;-70
2021/10/09 07:20:52;;;;;;;26.42;13.02;;;10.10;99.90;;;;;;5066424;28;20024;-70
2021/10/09 07:23:18;;;;;;;25.25;11.88;;;10.30;99.90;;;;;;5066776;28;20382;-71
2021/10/09 07:25:44;;;;;;;26.27;12.38;;;10.50;99.90;;;;;;5066794;28;20098;-67
2021/10/09 07:28:09;;;;;;;24.45;12.07;;;10.70;99.90;;;;;;5050308;28;20036;-72
2021/10/09 07:30:36;;;;;;;23.45;12.55;;;10.90;99.90;;;;;;5051385;28;20393;-74
2021/10/09 07:33:02;;;;;;;24.52;11.25;;;11.00;99.90;;;;;;5050137;28;20087;-68
2021/10/09 07:35:27;;;;;;;21.25;11.70;;;11.10;99.90;;;;;;5051625;28;20057;-70
2021/10/09 07:37:53;;;;;;;29.95;14.32;;;11.10;99.90;;;;;;5066589;28;20033;-68
2021/10/09 07:40:19;;;;;;;26.67;12.35;;;11.30;99.90;;;;;;5051597;28;20036;-69
2021/10/09 07:42:46;;;;;;;26.13;11.80;;;11.50;99.90;;;;;;5051248;28;20033;-71
2021/10/09 07:45:12;;;;;;;23.13;11.57;;;11.60;99.90;;;;;;5066676;28;20178;-71
2021/10/09 07:47:38;;;;;;;23.98;11.73;;;11.70;99.90;;;;;;5051476;28;20369;-72
2021/10/09 07:50:05;;;;;;;28.63;13.00;;;12.10;99.90;;;;;;5051465;28;20059;-74
2021/10/09 07:52:30;;;;;;;25.13;11.48;;;12.00;99.90;;;;;;5055056;28;20033;-73
2021/10/09 07:54:56;;;;;;;22.65;10.93;;;12.00;99.90;;;;;;5055031;28;20487;-72
2021/10/09 07:57:22;;;;;;;21.30;11.75;;;12.20;99.90;;;;;;5070569;28;20025;-71
2021/10/09 07:59:48;;;;;;;28.63;12.73;;;12.20;99.90;;;;;;5054593;28;20041;-74
2021/10/09 08:02:14;;;;;;;20.83;11.15;;;12.10;99.90;;;;;;5054520;28;20052;-72
2021/10/09 08:04:40;;;;;;;26.73;10.65;;;12.10;99.90;;;;;;5054349;28;20028;-71
2021/10/09 08:07:06;;;;;;;28.25;11.73;;;12.30;99.90;;;;;;5054658;28;20028;-70
2021/10/09 08:09:34;;;;;;;26.90;11.70;;;12.50;99.90;;;;;;5054628;28;20124;-70
2021/10/09 08:12:02;;;;;;;22.55;10.57;;;12.50;99.90;;;;;;5054364;28;20047;-70
2021/10/09 08:14:28;;;;;;;23.08;10.98;;;12.70;99.90;;;;;;5058446;28;20060;-72
2021/10/09 08:16:54;;;;;;;20.48;10.38;;;12.90;99.90;;;;;;5089520;28;20086;-70
2021/10/09 08:19:20;;;;;;;21.80;11.35;;;13.00;99.90;;;;;;5089713;28;20029;-71
2021/10/09 08:21:46;;;;;;;20.83;10.68;;;12.70;99.90;;;;;;5074054;28;20032;-71
2021/10/09 08:24:37;;;;;;;17.58;9.77;;;12.90;99.90;;;;;;5074342;28;20036;-72
2021/10/09 08:40:15;;;;;;;21.33;10.80;;;13.10;99.90;;;;;;5074052;28;20198;-68
2021/10/09 08:42:42;;;;;;;21.17;11.60;;;13.20;99.90;;;;;;5089718;28;20063;-69
2021/10/09 08:45:09;;;;;;;18.42;10.73;;;13.30;99.90;;;;;;5064317;28;20504;-68
2021/10/09 08:47:37;;;;;;;21.30;11.25;;;13.40;99.90;;;;;;5036194;28;20124;-68
2021/10/09 08:50:08;;;;;;;18.73;10.30;;;13.30;99.90;;;;;;5053617;28;20107;-68
2021/10/09 08:52:35;;;;;;;26.10;11.15;;;13.40;99.90;;;;;;5052482;28;20037;-68
2021/10/09 08:55:27;;;;;;;22.17;10.55;;;13.60;99.90;;;;;;5053533;28;20110;-69
2021/10/09 08:57:56;;;;;;;20.88;10.48;;;13.80;99.90;;;;;;5053308;28;20044;-67
2021/10/09 09:03:30;;;;;;;24.23;10.15;;;14.30;99.90;;;;;;5047858;28;20557;-68
2021/10/09 09:06:15;;;;;;;17.75;9.55;;;14.60;99.90;;;;;;5033651;28;20042;-68
2021/10/09 09:25:21;;;;;;;22.23;10.30;;;14.20;99.90;;;;;;5032501;28;20669;-68
2021/10/09 09:36:31;;;;;;;26.55;10.45;;;14.90;99.90;;;;;;5052615;28;20048;-69
2021/10/09 09:41:29;;;;;;;23.73;9.25;;;15.20;99.90;;;;;;5068465;28;20080;-70
2021/10/09 09:43:56;;;;;;;21.42;10.07;;;15.60;99.90;;;;;;5052846;28;20021;-69
2021/10/09 09:46:26;;;;;;;23.33;9.23;;;15.70;99.90;;;;;;5052729;28;20462;-69
2021/10/09 09:48:53;;;;;;;25.50;9.82;;;16.00;99.90;;;;;;5052427;28;20524;-68
2021/10/09 09:51:21;;;;;;;18.27;8.13;;;15.90;99.90;;;;;;5051063;28;20056;-68
2021/10/09 09:53:49;;;;;;;18.00;9.50;;;15.70;99.90;;;;;;5052067;28;20028;-68
2021/10/09 09:56:16;;;;;;;23.13;9.68;;;16.10;99.90;;;;;;5067770;28;20079;-68
2021/10/09 09:58:45;;;;;;;20.77;10.30;;;16.30;99.90;;;;;;5052449;28;20045;-67
2021/10/09 10:01:13;;;;;;;16.33;9.35;;;16.10;99.90;;;;;;5052517;28;20029;-68
2021/10/09 10:03:47;;;;;;;16.45;8.50;;;16.60;99.90;;;;;;5067883;28;20079;-68
2021/10/09 10:06:14;;;;;;;14.77;8.50;;;16.80;99.90;;;;;;5052249;28;20037;-68
2021/10/09 10:08:41;;;;;;;15.45;8.65;;;16.50;99.90;;;;;;5068092;28;20045;-67
2021/10/09 10:11:10;;;;;;;17.70;8.18;;;16.60;99.90;;;;;;5051389;28;20036;-67
2021/10/09 10:13:37;;;;;;;16.33;7.65;;;16.40;99.90;;;;;;5051807;28;20029;-67
2021/10/09 10:16:09;;;;;;;15.43;7.40;;;16.80;99.90;;;;;;5050821;28;20064;-68
2021/10/09 10:18:44;;;;;;;20.35;8.30;;;17.00;99.90;;;;;;5051786;28;20068;-68
2021/10/09 10:21:15;;;;;;;13.52;7.28;;;17.10;99.90;;;;;;5052493;28;20073;-68
2021/10/09 10:23:46;;;;;;;14.13;8.05;;;17.30;99.50;;;;;;5067322;28;20047;-69
2021/10/09 10:26:21;;;;;;;15.60;7.60;;;17.00;99.10;;;;;;5067687;28;20043;-69
2021/10/09 10:29:07;;;;;;;14.45;7.80;;;17.10;99.30;;;;;;5052345;28;20021;-68
2021/10/09 10:31:34;;;;;;;13.90;7.72;;;17.60;99.60;;;;;;5064767;28;20115;-68
2021/10/09 10:34:18;;;;;;;19.27;7.50;;;17.90;98.30;;;;;;5051791;28;20040;-68
2021/10/09 10:36:45;;;;;;;15.45;7.97;;;17.50;97.60;;;;;;5052163;28;20044;-68
2021/10/09 10:39:17;;;;;;;14.00;8.25;;;16.90;98.60;;;;;;5051810;28;20504;-67
2021/10/09 10:41:51;;;;;;;17.60;7.60;;;16.70;98.30;;;;;;5067648;28;20075;-68
2021/10/09 10:45:01;;;;;;;14.10;7.32;;;16.70;98.70;;;;;;5065976;28;20033;-65
2021/10/09 10:53:11;;;;;;;12.82;6.03;;;17.80;97.10;;;;;;5051548;28;20029;-69
2021/10/09 10:56:09;;;;;;;12.95;6.32;;;18.30;96.30;;;;;;5066413;28;20054;-69
2021/10/09 10:58:36;;;;;;;14.98;7.15;;;18.30;95.10;;;;;;5051435;28;20036;-68
2021/10/09 11:01:26;;;;;;;10.63;5.63;;;18.00;94.90;;;;;;5051737;28;20025;-68
2021/10/09 11:03:56;;;;;;;11.55;5.93;;;18.30;96.10;;;;;;5051778;28;20033;-68
2021/10/09 11:06:26;;;;;;;16.53;6.53;;;18.60;95.90;;;;;;5067058;28;20033;-69
2021/10/09 11:08:56;;;;;;;10.30;5.75;;;18.90;93.80;;;;;;5066999;28;20037;-68
2021/10/09 11:11:42;;;;;;;11.68;5.80;;;18.40;94.60;;;;;;5051979;28;20029;-68
2021/10/09 11:14:09;;;;;;;14.73;7.00;;;18.60;94.30;;;;;;5051433;28;20101;-69
2021/10/09 11:16:34;;;;;;;11.88;6.07;;;18.50;93.50;;;;;;5051626;28;20033;-69
2021/10/09 11:19:00;;;;;;;14.77;6.47;;;18.90;94.00;;;;;;5051265;28;20512;-71
2021/10/09 11:21:26;;;;;;;14.07;6.07;;;18.90;92.50;;;;;;5051436;28;20056;-69
2021/10/09 11:23:57;;;;;;;12.05;5.28;;;18.50;92.50;;;;;;5052960;28;20040;-70
2021/10/09 11:26:25;;;;;;;15.20;5.45;;;19.20;93.60;;;;;;5054276;28;20440;-70
2021/10/09 11:29:08;;;;;;;16.90;7.00;;;19.10;92.00;;;;;;5050583;28;20025;-69
2021/10/09 11:31:34;;;;;;;14.35;6.50;;;19.70;91.70;;;;;;5050840;28;20037;-70
2021/10/09 11:34:01;;;;;;;14.32;6.90;;;19.30;91.20;;;;;;5035209;28;20064;-71
2021/10/09 11:36:28;;;;;;;10.93;5.78;;;19.40;91.50;;;;;;5035349;28;20090;-70
2021/10/09 11:39:11;;;;;;;13.25;5.78;;;19.10;92.10;;;;;;5050816;28;20034;-70
2021/10/09 11:41:38;;;;;;;22.33;10.05;;;19.70;91.70;;;;;;5049875;28;20037;-70
2021/10/09 11:44:26;;;;;;;9.98;5.10;;;20.40;90.80;;;;;;5035100;28;20056;-70
2021/10/09 11:56:08;;;;;;;8.70;4.82;;;21.00;83.50;;;;;;5073749;28;20109;-69
2021/10/09 11:59:01;;;;;;;13.90;5.82;;;21.70;86.40;;;;;;5074966;28;20028;-70
2021/10/09 12:01:40;;;;;;;10.68;5.55;;;22.70;80.00;;;;;;5073771;28;20455;-70
2021/10/09 12:04:23;;;;;;;7.93;4.85;;;21.80;80.00;;;;;;5074503;28;20040;-69
2021/10/09 12:07:01;;;;;;;9.10;5.25;;;22.00;81.40;;;;;;5074960;28;20036;-70
2021/10/09 12:09:38;;;;;;;11.85;4.80;;;24.50;76.60;;;;;;5073582;28;20067;-69
2021/10/09 12:12:22;;;;;;;11.02;5.63;;;22.30;78.40;;;;;;5073452;28;20041;-70
2021/10/09 12:14:51;;;;;;;12.23;5.35;;;22.60;78.00;;;;;;5074327;28;20517;-70
2021/10/09 12:17:20;;;;;;;15.38;6.32;;;23.00;76.30;;;;;;5072650;28;20080;-70
2021/10/09 12:20:02;;;;;;;9.65;5.43;;;22.60;76.80;;;;;;5053901;28;20025;-70
2021/10/09 12:22:40;;;;;;;11.32;4.82;;;22.40;77.20;;;;;;5053952;28;20058;-70
2021/10/09 12:25:26;;;;;;;12.70;5.30;;;23.70;76.30;;;;;;5052631;28;20044;-70
2021/10/09 12:27:58;;;;;;;10.95;5.85;;;24.80;74.70;;;;;;5069008;28;20064;-69
2021/10/09 12:30:43;;;;;;;9.77;5.20;;;24.30;73.50;;;;;;5068935;28;20032;-70
2021/10/09 12:33:09;;;;;;;12.43;5.32;;;23.70;74.00;;;;;;5052051;28;20382;-70
2021/10/09 12:35:38;;;;;;;9.27;5.20;;;24.90;72.50;;;;;;5053625;28;20032;-69
2021/10/09 12:38:10;;;;;;;9.60;5.22;;;24.00;71.90;;;;;;5052551;28;20029;-69
2021/10/09 12:40:49;;;;;;;12.82;5.45;;;24.10;72.40;;;;;;5054022;28;20036;-69
2021/10/09 12:43:22;;;;;;;11.65;5.18;;;23.10;72.20;;;;;;5053700;28;20036;-69
2021/10/09 12:45:48;;;;;;;10.93;4.85;;;22.90;76.30;;;;;;5052862;28;20078;-70
2021/10/09 12:48:17;;;;;;;9.20;4.28;;;23.20;76.30;;;;;;5053483;28;20120;-69
2021/10/09 12:50:43;;;;;;;8.38;4.43;;;22.80;74.40;;;;;;5054125;28;20037;-69
2021/10/09 12:53:09;;;;;;;9.20;4.90;;;23.50;74.70;;;;;;5053861;28;20033;-69
2021/10/09 12:55:36;;;;;;;11.75;5.05;;;23.10;72.60;;;;;;5052691;28;20040;-70
2021/10/09 12:58:06;;;;;;;10.05;4.43;;;22.50;73.20;;;;;;5053715;28;20390;-67
2021/10/09 13:00:33;;;;;;;8.13;4.57;;;23.10;74.20;;;;;;5053722;28;20080;-68
2021/10/09 13:03:00;;;;;;;10.95;4.57;;;22.90;73.60;;;;;;5053410;28;20315;-66
2021/10/09 13:05:31;;;;;;;12.32;4.30;;;22.80;72.00;;;;;;5053459;28;20086;-68
2021/10/09 13:07:59;;;;;;;9.18;4.25;;;22.60;72.30;;;;;;5053845;28;20033;-68
2021/10/09 13:10:28;;;;;;;10.43;5.05;;;22.90;74.20;;;;;;5053291;28;20077;-67
2021/10/09 13:12:53;;;;;;;7.07;4.55;;;23.40;75.20;;;;;;5068829;28;20094;-68
2021/10/09 13:15:20;;;;;;;10.88;5.07;;;23.00;75.50;;;;;;5053432;28;20057;-68
2021/10/09 13:17:49;;;;;;;9.15;4.80;;;23.00;73.90;;;;;;5053279;28;20438;-68
2021/10/09 13:20:17;;;;;;;7.80;4.10;;;23.40;74.00;;;;;;5053336;28;20106;-68
2021/10/09 13:22:44;;;;;;;9.20;4.00;;;23.50;73.70;;;;;;5053089;28;20470;-68
2021/10/09 13:25:10;;;;;;;9.32;4.43;;;24.00;72.80;;;;;;5053044;28;20037;-68
2021/10/09 13:27:36;;;;;;;10.75;5.20;;;23.70;71.80;;;;;;5053467;28;20032;-76
2021/10/09 13:30:03;;;;;;;12.40;5.22;;;23.40;72.40;;;;;;5068224;28;20079;-74
2021/10/09 13:32:29;;;;;;;9.90;5.25;;;24.80;70.90;;;;;;5052676;28;20037;-74
2021/10/09 13:34:55;;;;;;;9.50;4.88;;;23.90;72.60;;;;;;5052717;28;20390;-75
2021/10/09 13:37:22;;;;;;;10.10;4.60;;;23.40;74.20;;;;;;5052929;28;20163;-75
2021/10/09 13:39:49;;;;;;;8.73;4.50;;;23.20;72.60;;;;;;5067935;28;20501;-74
2021/10/09 13:42:16;;;;;;;9.27;4.50;;;23.00;73.90;;;;;;5067743;28;20501;-75
2021/10/09 13:44:42;;;;;;;9.98;4.28;;;24.50;69.00;;;;;;5068099;28;20520;-74
2021/10/09 13:47:09;;;;;;;9.80;5.35;;;23.20;70.70;;;;;;5051863;28;20057;-74
2021/10/09 13:49:36;;;;;;;14.57;5.25;;;23.90;72.10;;;;;;5051245;28;20548;-74
2021/10/09 13:52:03;;;;;;;10.00;5.38;;;23.80;72.90;;;;;;5067718;28;20035;-74
2021/10/09 13:54:29;;;;;;;16.92;4.88;;;24.30;71.80;;;;;;5052590;28;20124;-74
2021/10/09 13:56:54;;;;;;;11.65;5.10;;;24.00;72.80;;;;;;5052539;28;20609;-75
2021/10/09 13:59:20;;;;;;;10.02;4.90;;;23.40;74.00;;;;;;5052111;28;20128;-74
2021/10/09 14:01:47;;;;;;;11.43;5.15;;;23.40;72.50;;;;;;5052256;28;20112;-74
2021/10/09 14:04:13;;;;;;;14.13;5.40;;;22.70;73.60;;;;;;5067606;28;20029;-74
2021/10/09 14:06:39;;;;;;;11.40;4.75;;;22.30;75.10;;;;;;5052288;28;20033;-75
2021/10/09 14:09:05;;;;;;;14.43;5.43;;;23.10;73.80;;;;;;5052303;28;20385;-74
2021/10/09 14:11:31;;;;;;;10.63;5.45;;;23.50;72.90;;;;;;5052043;28;20058;-75
2021/10/09 14:13:57;;;;;;;10.23;4.63;;;23.80;72.10;;;;;;5051202;28;20025;-74
2021/10/09 14:16:24;;;;;;;12.30;5.35;;;23.60;72.90;;;;;;5051897;28;20052;-75
2021/10/09 14:18:49;;;;;;;10.68;4.95;;;23.60;73.90;;;;;;5067355;28;20096;-75
2021/10/09 14:21:15;;;;;;;9.07;5.13;;;23.20;75.20;;;;;;5051876;28;20032;-75
2021/10/09 14:23:43;;;;;;;12.40;5.15;;;23.80;72.80;;;;;;5050755;28;20037;-75
2021/10/09 14:26:09;;;;;;;12.25;5.13;;;22.90;72.70;;;;;;5051992;28;20054;-75
2021/10/09 14:28:35;;;;;;;12.43;6.28;;;23.70;72.80;;;;;;5048983;28;20112;-71
2021/10/09 14:31:01;;;;;;;15.48;5.47;;;23.30;73.20;;;;;;5037664;28;20402;-74
2021/10/09 14:33:27;;;;;;;13.88;6.18;;;23.30;74.90;;;;;;5042609;28;20064;-74
2021/10/09 14:35:54;;;;;;;15.18;5.68;;;22.80;74.40;;;;;;5040568;28;20064;-76
2021/10/09 14:38:20;;;;;;;9.65;4.95;;;23.80;73.40;;;;;;5038958;28;20478;-75
2021/10/09 14:40:46;;;;;;;10.95;4.88;;;23.50;73.10;;;;;;5031068;28;20551;-79
2021/10/09 14:46:05;;;;;;;9.82;4.95;;;23.80;73.20;;;;;;5034977;28;20103;-78
2021/10/09 14:48:36;;;;;;;10.20;5.15;;;23.70;72.60;;;;;;5047052;28;20471;-77
2021/10/09 15:18:21;;;;;;;10.65;5.07;;;22.90;75.70;;;;;;5068487;28;20052;-77
2021/10/09 15:20:50;;;;;;;9.68;4.53;;;23.40;74.60;;;;;;5071091;28;20072;-73
2021/10/09 15:23:16;;;;;;;11.73;4.93;;;23.80;74.00;;;;;;5055523;28;20032;-75
2021/10/09 15:25:44;;;;;;;9.88;4.85;;;24.40;72.90;;;;;;5070649;28;20037;-76